createdAt,value
2023-04-23T00:01:09.800Z,72.70
2023-04-23T00:03:41.247Z,72.90
2023-04-23T00:06:12.143Z,73.20
2023-04-23T00:08:41.709Z,73.10
2023-04-23T00:11:11.545Z,73.20
2023-04-23T00:13:40.127Z,73.30
2023-04-23T00:16:10.847Z,73.30
2023-04-23T00:18:38.973Z,73.40
2023-04-23T00:21:08.650Z,73.40
2023-04-23T00:23:38.138Z,73.20
2023-04-23T00:26:06.689Z,73.50
2023-04-23T00:28:34.749Z,73.50
2023-04-23T00:31:02.846Z,73.40
2023-04-23T00:33:30.996Z,73.50
2023-04-23T00:35:59.052Z,73.50
2023-04-23T00:38:27.386Z,73.60
2023-04-23T00:40:56.913Z,73.60
2023-04-23T00:43:25.243Z,73.80
2023-04-23T00:45:54.135Z,73.80
2023-04-23T00:48:23.312Z,73.90
2023-04-23T00:51:00.488Z,74.00
2023-04-23T00:53:28.575Z,74.40
2023-04-23T00:55:58.853Z,74.00
2023-04-23T00:58:27.335Z,74.20
2023-04-23T01:00:55.502Z,74.00
2023-04-23T01:03:25.642Z,74.10
2023-04-23T01:05:54.288Z,74.20
2023-04-23T01:08:24.526Z,74.10
2023-04-23T01:10:53.292Z,74.20
2023-04-23T01:13:23.361Z,74.10
2023-04-23T01:15:51.553Z,74.30
2023-04-23T01:18:20.120Z,74.20
2023-04-23T01:20:48.487Z,74.20
2023-04-23T01:23:18.585Z,74.30
2023-04-23T01:25:47.103Z,74.40
2023-04-23T01:28:15.380Z,74.40
2023-04-23T01:30:44.998Z,75.10
2023-04-23T01:33:13.162Z,74.40
2023-04-23T01:35:42.367Z,74.40
2023-04-23T01:38:11.849Z,74.50
2023-04-23T01:40:41.271Z,74.40
2023-04-23T01:43:09.804Z,74.40
2023-04-23T01:45:38.379Z,74.30
2023-04-23T01:48:06.595Z,74.10
2023-04-23T01:50:34.828Z,74.00
2023-04-23T01:53:02.855Z,73.90
2023-04-23T01:55:31.500Z,74.50
2023-04-23T01:58:00.991Z,73.80
2023-04-23T02:00:29.025Z,73.80
2023-04-23T02:02:57.197Z,73.50
2023-04-23T02:05:26.596Z,73.40
2023-04-23T02:07:54.645Z,73.30
2023-04-23T02:10:22.695Z,73.20
2023-04-23T02:12:50.738Z,73.10
2023-04-23T02:15:21.407Z,72.90
2023-04-23T02:17:51.193Z,72.90
2023-04-23T02:20:20.016Z,72.70
2023-04-23T02:22:48.678Z,72.70
2023-04-23T02:25:18.046Z,72.50
2023-04-23T02:27:46.162Z,72.30
2023-04-23T02:30:14.606Z,72.00
2023-04-23T02:32:44.208Z,71.80
2023-04-23T02:35:12.756Z,71.80
2023-04-23T02:37:40.938Z,71.70
2023-04-23T02:40:10.924Z,71.70
2023-04-23T02:42:39.582Z,71.40
2023-04-23T02:45:09.678Z,71.40
2023-04-23T02:47:37.924Z,71.40
2023-04-23T02:50:08.699Z,71.30
2023-04-23T02:52:36.732Z,71.20
2023-04-23T02:55:05.307Z,71.10
2023-04-23T02:57:33.379Z,71.20
2023-04-23T03:00:01.464Z,71.20
2023-04-23T03:02:29.665Z,71.10
2023-04-23T03:04:57.791Z,71.20
2023-04-23T03:07:27.720Z,71.30
2023-04-23T03:09:55.784Z,71.50
2023-04-23T03:12:23.840Z,71.50
2023-04-23T03:14:51.900Z,71.40
2023-04-23T03:17:19.922Z,71.40
2023-04-23T03:19:48.772Z,71.50
2023-04-23T03:22:16.819Z,71.60
2023-04-23T03:24:46.295Z,71.60
2023-04-23T03:27:14.340Z,71.80
2023-04-23T03:29:42.382Z,72.40
2023-04-23T03:32:10.429Z,71.80
2023-04-23T03:34:38.514Z,71.70
2023-04-23T03:37:07.098Z,71.80
2023-04-23T03:39:35.151Z,71.80
2023-04-23T03:42:05.368Z,71.80
2023-04-23T03:44:33.401Z,72.00
2023-04-23T03:47:01.446Z,72.10
2023-04-23T03:49:29.456Z,72.20
2023-04-23T03:51:57.504Z,72.20
2023-04-23T03:54:26.593Z,72.30
2023-04-23T03:56:54.689Z,72.40
2023-04-23T03:59:24.126Z,72.40
2023-04-23T04:01:52.199Z,72.50
2023-04-23T04:04:20.584Z,72.40
2023-04-23T04:06:48.797Z,72.60
2023-04-23T04:09:17.086Z,72.40
2023-04-23T04:11:45.166Z,72.50
2023-04-23T04:14:13.267Z,72.50
2023-04-23T04:16:42.696Z,72.60
2023-04-23T04:19:10.854Z,72.60
2023-04-23T04:21:38.966Z,72.70
2023-04-23T04:24:07.214Z,72.70
2023-04-23T04:26:35.379Z,72.80
2023-04-23T04:29:03.467Z,72.70
2023-04-23T04:31:32.339Z,72.70
2023-04-23T04:34:01.903Z,72.80
2023-04-23T04:36:30.003Z,72.90
2023-04-23T04:38:59.019Z,72.80
2023-04-23T04:41:27.708Z,73.00
2023-04-23T04:43:55.988Z,73.10
2023-04-23T04:46:26.151Z,73.30
2023-04-23T04:48:54.268Z,73.20
2023-04-23T04:51:23.814Z,73.30
2023-04-23T04:53:51.884Z,73.30
2023-04-23T04:56:20.031Z,73.40
2023-04-23T04:58:48.078Z,73.40
2023-04-23T05:01:16.180Z,73.60
2023-04-23T05:03:44.378Z,73.70
2023-04-23T05:06:12.562Z,73.90
2023-04-23T05:08:42.770Z,74.00
2023-04-23T05:11:10.889Z,74.20
2023-04-23T05:13:38.910Z,74.20
2023-04-23T05:16:07.190Z,74.30
2023-04-23T05:18:35.371Z,74.40
2023-04-23T05:21:03.546Z,74.50
2023-04-23T05:23:31.832Z,74.60
2023-04-23T05:26:03.525Z,74.80
2023-04-23T05:28:31.900Z,74.90
2023-04-23T05:31:00.040Z,74.90
2023-04-23T05:33:33.581Z,75.00
2023-04-23T05:36:08.288Z,75.10
2023-04-23T05:38:36.388Z,75.00
2023-04-23T05:41:06.022Z,75.10
2023-04-23T05:43:34.062Z,75.30
2023-04-23T05:46:04.193Z,75.40
2023-04-23T05:48:32.248Z,75.60
2023-04-23T05:51:00.473Z,75.60
2023-04-23T05:53:29.287Z,75.60
2023-04-23T05:55:57.369Z,75.70
2023-04-23T05:58:26.968Z,75.50
2023-04-23T06:00:55.309Z,75.80
2023-04-23T06:03:23.510Z,75.70
2023-04-23T06:05:51.675Z,75.90
2023-04-23T06:08:21.007Z,75.90
2023-04-23T06:10:49.497Z,75.70
2023-04-23T06:13:17.856Z,75.40
2023-04-23T06:15:47.268Z,75.30
2023-04-23T06:18:15.515Z,75.40
2023-04-23T06:20:43.665Z,74.90
2023-04-23T06:23:14.578Z,74.80
2023-04-23T06:25:42.841Z,74.90
2023-04-23T06:28:10.869Z,74.80
2023-04-23T06:30:38.916Z,74.80
2023-04-23T06:33:09.391Z,74.80
2023-04-23T06:35:37.419Z,74.70
2023-04-23T06:38:06.196Z,74.50
2023-04-23T06:40:34.467Z,74.40
2023-04-23T06:43:04.483Z,74.40
2023-04-23T06:45:33.279Z,74.50
2023-04-23T06:48:01.862Z,74.60
2023-04-23T06:50:31.415Z,74.80
2023-04-23T06:52:59.537Z,74.70
2023-04-23T06:55:29.055Z,74.40
2023-04-23T06:57:58.787Z,74.30
2023-04-23T07:00:27.026Z,74.80
2023-04-23T07:02:55.197Z,74.90
2023-04-23T07:05:23.461Z,75.10
2023-04-23T07:07:53.400Z,74.80
2023-04-23T07:10:21.642Z,75.10
2023-04-23T07:12:49.792Z,75.40
2023-04-23T07:15:17.937Z,75.50
2023-04-23T07:17:46.145Z,75.10
2023-04-23T07:20:14.303Z,74.90
2023-04-23T07:22:42.355Z,74.50
2023-04-23T07:25:11.875Z,74.30
2023-04-23T07:27:40.029Z,74.10
2023-04-23T07:30:09.297Z,74.40
2023-04-23T07:32:37.552Z,74.50
2023-04-23T07:35:06.578Z,74.50
2023-04-23T07:37:34.643Z,74.40
2023-04-23T07:40:02.757Z,73.90
2023-04-23T07:42:32.324Z,73.50
2023-04-23T07:45:00.430Z,73.60
2023-04-23T07:47:28.558Z,73.10
2023-04-23T07:49:56.646Z,73.10
2023-04-23T07:52:24.724Z,72.80
2023-04-23T07:54:52.747Z,72.30
2023-04-23T07:57:20.836Z,72.30
2023-04-23T07:59:50.250Z,72.50
2023-04-23T08:02:23.610Z,72.10
2023-04-23T08:04:51.880Z,71.40
2023-04-23T08:07:20.261Z,71.10
2023-04-23T08:09:48.804Z,70.80
2023-04-23T08:12:17.445Z,70.90
2023-04-23T08:14:47.353Z,70.50
2023-04-23T08:17:16.780Z,70.20
2023-04-23T08:19:44.809Z,69.70
2023-04-23T08:22:13.311Z,69.60
2023-04-23T08:24:41.460Z,69.70
2023-04-23T08:27:09.543Z,69.90
2023-04-23T08:29:37.630Z,70.00
2023-04-23T08:32:05.828Z,69.50
2023-04-23T08:34:35.855Z,69.30
2023-04-23T08:37:04.593Z,69.80
2023-04-23T08:39:34.123Z,69.40
2023-04-23T08:42:10.460Z,69.70
2023-04-23T08:44:41.612Z,69.50
2023-04-23T08:47:12.315Z,70.10
2023-04-23T08:49:44.652Z,70.10
2023-04-23T08:52:18.516Z,69.80
2023-04-23T08:54:50.729Z,69.50
2023-04-23T08:57:19.569Z,69.30
2023-04-23T08:59:48.230Z,69.10
2023-04-23T09:02:18.553Z,69.40
2023-04-23T09:04:50.897Z,69.10
2023-04-23T09:07:20.132Z,68.50
2023-04-23T09:09:48.607Z,68.00
2023-04-23T09:12:16.761Z,67.50
2023-04-23T09:14:45.590Z,68.10
2023-04-23T09:17:13.683Z,68.60
2023-04-23T09:19:42.845Z,67.10
2023-04-23T09:22:13.067Z,66.40
2023-04-23T09:24:44.171Z,67.00
2023-04-23T09:27:12.217Z,66.30
2023-04-23T09:29:40.574Z,66.20
2023-04-23T09:32:10.307Z,65.80
2023-04-23T09:34:38.876Z,65.70
2023-04-23T09:37:10.950Z,65.80
2023-04-23T09:39:41.118Z,66.00
2023-04-23T09:42:11.217Z,66.10
2023-04-23T09:44:39.263Z,66.40
2023-04-23T09:47:09.768Z,66.90
2023-04-23T09:49:47.535Z,67.30
2023-04-23T09:52:15.706Z,67.60
2023-04-23T09:54:46.476Z,68.10
2023-04-23T09:57:14.759Z,68.60
2023-04-23T09:59:48.962Z,68.90
2023-04-23T10:02:19.996Z,69.10
2023-04-23T10:05:00.661Z,69.30
2023-04-23T10:07:32.503Z,70.80
2023-04-23T10:10:01.886Z,71.80
2023-04-23T10:12:46.535Z,71.40
2023-04-23T10:15:18.192Z,71.20
2023-04-23T10:17:48.932Z,70.80
2023-04-23T10:20:18.007Z,69.80
2023-04-23T10:22:47.433Z,69.20
2023-04-23T10:25:17.468Z,68.40
2023-04-23T10:27:53.838Z,67.00
2023-04-23T10:30:23.359Z,67.40
2023-04-23T10:32:52.176Z,67.40
2023-04-23T10:35:20.371Z,66.90
2023-04-23T10:37:49.555Z,67.10
2023-04-23T10:40:24.750Z,66.80
2023-04-23T10:42:53.133Z,65.20
2023-04-23T10:45:25.263Z,64.70
2023-04-23T10:47:56.354Z,63.80
2023-04-23T10:50:26.825Z,63.00
2023-04-23T10:52:57.132Z,61.80
2023-04-23T10:55:28.298Z,61.10
2023-04-23T10:58:02.252Z,61.50
2023-04-23T11:00:42.974Z,60.00
2023-04-23T11:03:32.526Z,59.90
2023-04-23T11:06:03.566Z,59.80
2023-04-23T11:08:33.139Z,60.10
2023-04-23T11:11:07.371Z,60.00
2023-04-23T11:13:35.604Z,59.90
2023-04-23T11:16:23.654Z,59.80
2023-04-23T11:19:03.944Z,59.00
2023-04-23T11:21:57.128Z,58.70
2023-04-23T11:24:25.311Z,58.60
2023-04-23T11:26:55.059Z,58.60
2023-04-23T11:29:24.762Z,58.10
2023-04-23T11:32:02.427Z,58.30
2023-04-23T11:34:31.169Z,58.30
2023-04-23T11:37:01.303Z,58.00
2023-04-23T11:39:29.380Z,57.50
2023-04-23T11:42:03.062Z,58.10
2023-04-23T11:44:31.846Z,58.10
2023-04-23T11:47:02.654Z,58.20
2023-04-23T11:49:30.884Z,58.30
2023-04-23T11:52:01.734Z,58.60
2023-04-23T11:54:30.556Z,58.80
2023-04-23T11:57:00.096Z,58.50
2023-04-23T11:59:28.947Z,58.90
2023-04-23T12:01:58.274Z,58.10
2023-04-23T12:04:27.688Z,58.30
2023-04-23T12:06:57.285Z,58.10
2023-04-23T12:09:28.528Z,58.20
2023-04-23T12:11:59.382Z,58.20
2023-04-23T12:14:29.947Z,58.10
2023-04-23T12:16:58.957Z,57.60
2023-04-23T12:19:31.512Z,57.30
2023-04-23T12:22:02.176Z,56.20
2023-04-23T12:24:31.663Z,56.40
2023-04-23T12:27:02.868Z,56.40
2023-04-23T12:29:32.039Z,55.90
2023-04-23T12:32:01.331Z,56.00
2023-04-23T12:34:29.396Z,55.70
2023-04-23T12:36:57.774Z,55.80
2023-04-23T12:39:29.373Z,55.50
2023-04-23T12:42:02.520Z,55.40
2023-04-23T12:44:30.921Z,55.00
2023-04-23T12:47:00.708Z,55.40
2023-04-23T12:49:29.526Z,55.60
2023-04-23T12:52:01.051Z,55.60
2023-04-23T12:54:31.205Z,56.20
2023-04-23T12:57:02.001Z,55.60
2023-04-23T12:59:30.400Z,55.80
2023-04-23T13:02:02.108Z,55.70
2023-04-23T13:04:31.311Z,55.10
2023-04-23T13:06:59.353Z,55.10
2023-04-23T13:09:28.094Z,55.00
2023-04-23T13:11:56.612Z,55.40
2023-04-23T13:14:27.174Z,54.80
2023-04-23T13:16:55.547Z,54.60
2023-04-23T13:19:23.578Z,55.00
2023-04-23T13:21:51.613Z,54.30
2023-04-23T13:24:19.844Z,53.90
2023-04-23T13:26:47.928Z,54.40
2023-04-23T13:29:16.058Z,54.80
2023-04-23T13:31:45.539Z,54.90
2023-04-23T13:34:13.726Z,54.60
2023-04-23T13:36:42.311Z,53.90
2023-04-23T13:39:12.071Z,53.10
2023-04-23T13:41:40.095Z,53.60
2023-04-23T13:44:08.116Z,53.20
2023-04-23T13:46:36.484Z,53.30
2023-04-23T13:49:05.895Z,53.30
2023-04-23T13:51:36.016Z,53.50
2023-04-23T13:54:04.585Z,53.10
2023-04-23T13:56:33.346Z,53.40
2023-04-23T14:01:33.067Z,54.00
2023-04-23T14:04:01.235Z,54.50
2023-04-23T14:06:30.667Z,54.10
2023-04-23T14:08:58.747Z,54.00
2023-04-23T14:11:26.844Z,54.30
2023-04-23T14:13:56.389Z,54.70
2023-04-23T14:16:24.466Z,54.60
2023-04-23T14:18:52.529Z,55.10
2023-04-23T14:21:20.571Z,55.10
2023-04-23T14:23:57.406Z,55.30
2023-04-23T14:26:47.512Z,55.00
2023-04-23T14:29:25.347Z,54.80
2023-04-23T14:31:53.634Z,55.10
2023-04-23T14:34:22.215Z,54.80
2023-04-23T14:36:52.725Z,54.30
2023-04-23T14:39:24.386Z,54.40
2023-04-23T14:41:52.545Z,54.10
2023-04-23T14:44:23.255Z,54.10
2023-04-23T14:46:51.568Z,53.70
2023-04-23T14:49:20.792Z,53.40
2023-04-23T14:51:50.802Z,53.60
2023-04-23T14:54:18.982Z,53.50
2023-04-23T14:56:48.513Z,53.30
2023-04-23T14:59:16.608Z,52.70
2023-04-23T15:01:44.862Z,52.90
2023-04-23T15:04:13.137Z,52.90
2023-04-23T15:06:41.507Z,53.00
2023-04-23T15:09:09.937Z,53.10
2023-04-23T15:11:38.831Z,53.40
2023-04-23T15:14:18.720Z,53.30
2023-04-23T15:16:49.490Z,53.80
2023-04-23T15:19:19.256Z,53.60
2023-04-23T15:21:47.592Z,53.50
2023-04-23T15:24:15.924Z,53.40
2023-04-23T15:26:45.763Z,52.70
2023-04-23T15:29:15.440Z,52.80
2023-04-23T15:31:43.523Z,52.30
2023-04-23T15:34:12.233Z,52.40
2023-04-23T15:36:40.546Z,52.50
2023-04-23T15:39:10.148Z,52.90
2023-04-23T15:41:40.572Z,51.50
2023-04-23T15:44:11.610Z,50.90
2023-04-23T15:46:41.193Z,51.10
2023-04-23T15:49:09.260Z,51.20
2023-04-23T15:51:37.646Z,51.30
2023-04-23T15:54:08.434Z,51.30
2023-04-23T15:56:37.488Z,51.20
2023-04-23T15:59:05.790Z,51.20
2023-04-23T16:01:33.961Z,51.20
2023-04-23T16:06:34.332Z,50.90
2023-04-23T16:09:06.703Z,50.60
2023-04-23T16:11:35.645Z,50.40
2023-04-23T16:14:03.912Z,50.40
2023-04-23T16:16:32.079Z,50.50
2023-04-23T16:19:00.217Z,50.90
2023-04-23T16:21:29.733Z,50.80
2023-04-23T16:23:57.885Z,50.80
2023-04-23T16:26:26.058Z,50.70
2023-04-23T16:29:05.735Z,50.80
2023-04-23T16:31:39.844Z,50.80
2023-04-23T16:34:08.006Z,50.90
2023-04-23T16:36:37.491Z,50.90
2023-04-23T16:39:05.751Z,50.70
2023-04-23T16:41:33.873Z,50.30
2023-04-23T16:44:01.935Z,50.60
2023-04-23T16:46:31.664Z,50.60
2023-04-23T16:49:00.371Z,50.80
2023-04-23T16:51:29.646Z,50.90
2023-04-23T16:53:59.439Z,50.50
2023-04-23T16:56:27.613Z,50.40
2023-04-23T16:58:55.707Z,50.40
2023-04-23T17:01:23.765Z,50.30
2023-04-23T17:03:52.007Z,50.20
2023-04-23T17:06:26.790Z,49.90
2023-04-23T17:08:55.382Z,49.90
2023-04-23T17:11:24.998Z,50.10
2023-04-23T17:13:53.066Z,50.20
2023-04-23T17:16:21.275Z,49.90
2023-04-23T17:18:49.618Z,49.80
2023-04-23T17:21:17.960Z,50.00
2023-04-23T17:23:46.447Z,49.90
2023-04-23T17:26:14.621Z,49.80
2023-04-23T17:28:44.076Z,50.00
2023-04-23T17:31:12.209Z,49.90
2023-04-23T17:33:43.396Z,50.60
2023-04-23T17:36:11.614Z,51.50
2023-04-23T17:38:39.647Z,52.10
2023-04-23T17:41:07.714Z,53.00
2023-04-23T17:43:35.875Z,53.60
2023-04-23T17:46:05.336Z,54.20
2023-04-23T17:48:33.433Z,55.00
2023-04-23T17:51:01.915Z,55.70
2023-04-23T17:53:30.145Z,56.30
2023-04-23T17:56:02.643Z,56.80
2023-04-23T17:58:31.356Z,57.30
2023-04-23T18:00:59.645Z,57.70
2023-04-23T18:03:30.247Z,58.20
2023-04-23T18:05:58.592Z,58.50
2023-04-23T18:08:27.032Z,58.70
2023-04-23T18:10:55.330Z,59.20
2023-04-23T18:13:23.408Z,59.70
2023-04-23T18:15:51.548Z,60.10
2023-04-23T18:18:21.594Z,60.50
2023-04-23T18:20:52.023Z,61.30
2023-04-23T18:23:22.023Z,61.80
2023-04-23T18:25:50.235Z,61.90
2023-04-23T18:28:18.281Z,62.30
2023-04-23T18:30:46.395Z,62.50
2023-04-23T18:33:26.691Z,62.60
2023-04-23T18:35:59.364Z,63.30
2023-04-23T18:38:32.911Z,63.20
2023-04-23T18:41:04.408Z,63.50
2023-04-23T18:43:33.446Z,63.30
2023-04-23T18:46:01.990Z,63.50
2023-04-23T18:48:52.340Z,63.70
2023-04-23T18:51:27.541Z,64.30
2023-04-23T18:53:55.625Z,64.70
2023-04-23T18:56:24.978Z,64.50
2023-04-23T18:58:53.032Z,64.80
2023-04-23T19:01:21.608Z,64.30
2023-04-23T19:03:49.889Z,64.30
2023-04-23T19:06:18.044Z,64.40
2023-04-23T19:08:47.474Z,64.50
2023-04-23T19:11:15.702Z,64.40
2023-04-23T19:13:43.757Z,64.20
2023-04-23T19:16:11.975Z,64.10
2023-04-23T19:18:40.120Z,64.00
2023-04-23T19:21:08.187Z,64.00
2023-04-23T19:23:36.253Z,63.80
2023-04-23T19:26:05.885Z,63.90
2023-04-23T19:28:34.318Z,63.70
2023-04-23T19:31:03.812Z,63.70
2023-04-23T19:33:31.973Z,63.80
2023-04-23T19:36:00.029Z,63.90
2023-04-23T19:38:28.141Z,63.90
2023-04-23T19:40:56.899Z,64.00
2023-04-23T19:43:26.365Z,64.10
2023-04-23T19:45:54.736Z,64.30
2023-04-23T19:48:22.774Z,64.40
2023-04-23T19:50:51.184Z,64.40
2023-04-23T19:53:19.233Z,64.60
2023-04-23T19:55:47.290Z,64.80
2023-04-23T19:58:17.627Z,64.80
2023-04-23T20:00:47.199Z,65.10
2023-04-23T20:03:16.067Z,65.30
2023-04-23T20:05:46.092Z,65.40
2023-04-23T20:08:25.477Z,65.40
2023-04-23T20:10:53.923Z,65.40
2023-04-23T20:13:23.478Z,65.50
2023-04-23T20:15:55.095Z,65.60
2023-04-23T20:18:25.585Z,65.80
2023-04-23T20:20:53.920Z,65.60
2023-04-23T20:23:21.974Z,65.80
2023-04-23T20:25:50.048Z,65.90
2023-04-23T20:28:18.269Z,66.00
2023-04-23T20:30:46.314Z,66.00
2023-04-23T20:33:18.632Z,66.20
2023-04-23T20:35:47.657Z,66.30
2023-04-23T20:38:19.465Z,66.20
2023-04-23T20:40:47.690Z,66.40
2023-04-23T20:43:15.760Z,66.40
2023-04-23T20:45:44.098Z,66.60
2023-04-23T20:48:12.232Z,66.70
2023-04-23T20:50:41.685Z,67.00
2023-04-23T20:53:09.751Z,67.10
2023-04-23T20:55:37.988Z,67.30
2023-04-23T20:58:06.096Z,67.30
2023-04-23T21:00:34.974Z,67.60
2023-04-23T21:03:03.202Z,67.50
2023-04-23T21:05:31.511Z,67.30
2023-04-23T21:08:00.911Z,67.20
2023-04-23T21:10:28.965Z,66.70
2023-04-23T21:12:57.013Z,66.80
2023-04-23T21:15:25.250Z,66.70
2023-04-23T21:17:53.311Z,66.50
2023-04-23T21:20:21.485Z,66.50
2023-04-23T21:22:49.526Z,66.30
2023-04-23T21:25:19.089Z,66.20
2023-04-23T21:27:48.708Z,66.30
2023-04-23T21:30:25.731Z,66.20
2023-04-23T21:32:54.336Z,66.30
2023-04-23T21:35:22.440Z,66.20
2023-04-23T21:37:50.493Z,66.20
2023-04-23T21:40:19.972Z,66.00
2023-04-23T21:42:48.113Z,66.00
2023-04-23T21:45:17.944Z,66.20
2023-04-23T21:47:46.077Z,66.10
2023-04-23T21:50:14.202Z,65.90
2023-04-23T21:52:43.999Z,65.80
2023-04-23T21:55:13.533Z,65.90
2023-04-23T21:57:42.963Z,65.90
2023-04-23T22:00:13.939Z,66.00
2023-04-23T22:02:46.395Z,65.70
2023-04-23T22:05:16.950Z,65.60
2023-04-23T22:07:45.068Z,66.30
2023-04-23T22:10:15.656Z,65.60
2023-04-23T22:12:46.032Z,65.60
2023-04-23T22:15:16.395Z,65.70
2023-04-23T22:17:46.320Z,65.90
2023-04-23T22:20:15.792Z,65.90
2023-04-23T22:22:44.216Z,65.70
2023-04-23T22:25:12.820Z,65.70
2023-04-23T22:27:43.334Z,66.10
2023-04-23T22:30:13.368Z,66.10
2023-04-23T22:32:41.517Z,66.00
2023-04-23T22:35:10.498Z,66.30
2023-04-23T22:37:38.876Z,66.20
2023-04-23T22:40:09.611Z,66.40
2023-04-23T22:42:37.835Z,66.40
2023-04-23T22:45:07.197Z,66.40
2023-04-23T22:47:37.026Z,66.70
2023-04-23T22:50:05.743Z,66.90
2023-04-23T22:52:33.838Z,67.10
2023-04-23T22:55:02.109Z,67.20
2023-04-23T22:57:30.680Z,67.40
2023-04-23T22:59:58.786Z,67.60
2023-04-23T23:02:26.965Z,67.90
2023-04-23T23:04:56.609Z,68.00
2023-04-23T23:07:24.636Z,68.20
2023-04-23T23:09:52.688Z,68.30
2023-04-23T23:12:20.731Z,68.40
2023-04-23T23:14:48.800Z,68.50
2023-04-23T23:17:16.833Z,68.50
2023-04-23T23:19:45.090Z,68.40
2023-04-23T23:22:14.743Z,68.30
2023-04-23T23:24:42.822Z,68.30
2023-04-23T23:27:10.864Z,68.20
2023-04-23T23:29:38.899Z,68.10
2023-04-23T23:32:06.941Z,68.20
2023-04-23T23:34:35.332Z,68.30
2023-04-23T23:37:03.366Z,68.20
2023-04-23T23:39:32.780Z,68.30
2023-04-23T23:42:02.258Z,68.40
2023-04-23T23:44:30.653Z,68.50
2023-04-23T23:46:58.785Z,68.60
2023-04-23T23:49:26.866Z,68.60
2023-04-23T23:51:54.955Z,68.60
2023-04-23T23:54:22.980Z,68.60
2023-04-23T23:56:52.414Z,68.60
2023-04-23T23:59:20.447Z,68.70
